Time;durP1;ratioP1;P1;durP2;ratioP2;P2;SDS_P1;SDS_P2;PMS_P1;PMS_P2;Temp;Humidity;BMP_temperature;BMP_pressure;BME280_temperature;BME280_humidity;BME280_pressure;Samples;Min_cycle;Max_cycle;Signal;HPM_P1;HPM_P2
2023/06/26 00:01:45;;;;;;;5.03;0.93;;;19.40;55.80;;;;;;5073412;28;20547;-70
2023/06/26 00:04:14;;;;;;;4.07;0.73;;;19.60;55.40;;;;;;5074367;28;20180;-73
2023/06/26 00:06:42;;;;;;;1.80;0.60;;;20.10;56.20;;;;;;5061285;28;20534;-70
2023/06/26 00:09:12;;;;;;;1.03;0.50;;;20.40;55.10;;;;;;5073365;28;20188;-72
2023/06/26 00:11:39;;;;;;;1.27;0.60;;;20.40;53.40;;;;;;5072037;28;20208;-71
2023/06/26 00:14:07;;;;;;;3.50;0.53;;;21.00;51.30;;;;;;5072102;28;20203;-70
2023/06/26 00:16:36;;;;;;;3.50;0.70;;;21.20;50.80;;;;;;5071945;28;20242;-73
2023/06/26 00:19:03;;;;;;;5.57;0.90;;;21.50;49.40;;;;;;5070733;28;20192;-71
2023/06/26 00:21:31;;;;;;;5.97;0.80;;;20.60;46.20;;;;;;5072208;28;20286;-71
2023/06/26 00:23:59;;;;;;;1.80;0.83;;;20.60;47.00;;;;;;5071837;28;20187;-74
2023/06/26 00:26:27;;;;;;;3.30;0.50;;;20.70;47.10;;;;;;5072198;28;20178;-71
2023/06/26 00:28:54;;;;;;;1.63;0.70;;;20.30;47.20;;;;;;5071662;28;20190;-72
2023/06/26 00:31:22;;;;;;;3.63;0.60;;;20.60;46.60;;;;;;5072090;28;20744;-69
2023/06/26 00:33:50;;;;;;;4.63;0.70;;;20.60;44.20;;;;;;5071903;28;20168;-71
2023/06/26 00:36:17;;;;;;;1.43;0.60;;;20.80;45.70;;;;;;5071572;28;20222;-71
2023/06/26 00:38:45;;;;;;;4.60;0.90;;;20.90;44.50;;;;;;5071628;28;20180;-71
2023/06/26 00:41:13;;;;;;;1.77;0.70;;;20.80;43.60;;;;;;5071820;28;20233;-73
2023/06/26 00:43:41;;;;;;;8.60;0.93;;;21.00;43.40;;;;;;5071685;28;20176;-70
2023/06/26 00:46:15;;;;;;;1.47;0.70;;;21.60;45.10;;;;;;5071676;28;20663;-71
2023/06/26 00:48:44;;;;;;;1.77;0.67;;;22.20;40.70;;;;;;5071391;28;20237;-73
2023/06/26 00:51:12;;;;;;;6.57;0.97;;;21.70;39.10;;;;;;5071379;28;20290;-70
2023/06/26 00:53:41;;;;;;;4.43;0.50;;;21.20;40.40;;;;;;5071219;28;20170;-69
2023/06/26 00:56:10;;;;;;;3.53;0.70;;;21.50;39.10;;;;;;5071346;28;20225;-70
2023/06/26 00:58:37;;;;;;;2.33;0.50;;;21.90;39.40;;;;;;5071265;28;20171;-72
2023/06/26 01:01:17;;;;;;;2.33;0.90;;;22.40;37.80;;;;;;5071951;28;20657;-72
2023/06/26 01:03:51;;;;;;;4.53;0.67;;;22.30;37.60;;;;;;5072948;28;21451;-73
2023/06/26 01:06:20;;;;;;;2.77;0.63;;;22.40;36.40;;;;;;5073124;28;20175;-74
2023/06/26 01:08:49;;;;;;;1.03;0.50;;;22.10;35.40;;;;;;5073134;28;20629;-70
2023/06/26 01:11:17;;;;;;;4.97;0.80;;;22.20;35.40;;;;;;5072970;28;20208;-71
2023/06/26 01:13:45;;;;;;;2.47;0.77;;;22.10;34.20;;;;;;5073120;28;20544;-69
2023/06/26 01:16:13;;;;;;;2.00;0.60;;;22.20;34.70;;;;;;5072992;28;20176;-66
2023/06/26 01:18:42;;;;;;;4.73;0.60;;;22.70;35.00;;;;;;5072635;28;20697;-71
2023/06/26 01:21:11;;;;;;;1.77;0.50;;;23.10;33.00;;;;;;5073081;28;20670;-73
2023/06/26 01:23:58;;;;;;;2.13;0.50;;;23.30;33.00;;;;;;5072992;28;20627;-71
2023/06/26 01:26:30;;;;;;;5.27;0.63;;;23.40;31.00;;;;;;5073401;28;20172;-70
2023/06/26 01:29:01;;;;;;;2.60;0.80;;;23.10;30.10;;;;;;5072872;28;20168;-70
2023/06/26 01:31:31;;;;;;;1.17;0.50;;;22.60;31.30;;;;;;5075831;28;20212;-72
2023/06/26 01:37:21;;;;;;;2.03;0.83;;;22.40;30.80;;;;;;5072286;28;20187;-71
2023/06/26 01:39:48;;;;;;;2.37;0.80;;;21.90;31.00;;;;;;5072659;28;20250;-70
2023/06/26 01:42:17;;;;;;;5.00;0.70;;;22.00;32.20;;;;;;5072695;28;20176;-70
2023/06/26 01:44:47;;;;;;;6.50;0.97;;;21.80;31.10;;;;;;5072474;28;20187;-71
2023/06/26 01:47:20;;;;;;;1.17;0.67;;;21.90;32.80;;;;;;5072886;28;20175;-71
2023/06/26 01:50:09;;;;;;;3.43;1.10;;;22.50;32.60;;;;;;5072542;28;20180;-71
2023/06/26 01:52:41;;;;;;;4.53;0.80;;;22.60;30.60;;;;;;5072768;28;20176;-71
2023/06/26 01:55:42;;;;;;;3.33;0.80;;;22.90;30.50;;;;;;5072617;28;20200;-70
2023/06/26 02:02:11;;;;;;;1.53;0.60;;;23.20;30.40;;;;;;5072647;28;20182;-71
2023/06/26 02:04:40;;;;;;;3.97;0.87;;;23.70;29.00;;;;;;5073521;28;20179;-71
2023/06/26 02:07:09;;;;;;;7.07;0.70;;;23.20;28.90;;;;;;5076351;28;20237;-71
2023/06/26 02:09:37;;;;;;;6.03;0.87;;;22.60;28.70;;;;;;5076378;28;20168;-71
2023/06/26 02:12:09;;;;;;;0.97;0.83;;;22.20;27.60;;;;;;5076115;28;20214;-70
2023/06/26 02:14:37;;;;;;;2.47;0.80;;;22.20;27.80;;;;;;5058217;28;20184;-69
2023/06/26 02:17:05;;;;;;;3.17;0.87;;;22.20;28.60;;;;;;5075842;28;20235;-71
2023/06/26 02:19:36;;;;;;;2.43;1.10;;;22.00;28.70;;;;;;5075950;28;20582;-71
2023/06/26 02:22:03;;;;;;;3.10;0.70;;;22.30;28.30;;;;;;5075928;28;20183;-71
2023/06/26 02:24:32;;;;;;;5.00;0.77;;;22.10;28.70;;;;;;5076082;28;20171;-71
2023/06/26 02:27:00;;;;;;;1.90;0.60;;;22.50;29.20;;;;;;5076130;28;20179;-71
2023/06/26 02:29:28;;;;;;;2.17;0.80;;;22.20;27.80;;;;;;5076066;28;20175;-69
2023/06/26 02:31:55;;;;;;;3.90;0.70;;;22.10;28.50;;;;;;5073211;28;20257;-68
2023/06/26 02:34:23;;;;;;;5.37;0.80;;;22.20;28.60;;;;;;5075401;28;20172;-69
2023/06/26 02:36:54;;;;;;;2.23;0.73;;;22.10;28.10;;;;;;5076024;28;20176;-68
2023/06/26 02:39:22;;;;;;;5.80;1.33;;;22.20;28.00;;;;;;5075828;28;20641;-69
2023/06/26 02:41:50;;;;;;;1.03;0.50;;;22.30;28.60;;;;;;5074308;28;20496;-68
2023/06/26 02:44:18;;;;;;;2.40;0.50;;;22.70;27.50;;;;;;5075830;28;20172;-68
2023/06/26 02:46:46;;;;;;;1.30;0.53;;;22.10;26.10;;;;;;5075791;28;20172;-68
2023/06/26 02:49:13;;;;;;;4.73;0.83;;;22.00;27.30;;;;;;5075894;28;20209;-69
2023/06/26 02:51:41;;;;;;;3.03;0.67;;;21.80;27.00;;;;;;5075453;28;20215;-67
2023/06/26 02:54:09;;;;;;;1.97;0.70;;;22.00;27.60;;;;;;5075815;28;20176;-66
2023/06/26 02:56:37;;;;;;;4.73;0.63;;;22.00;26.40;;;;;;5075397;28;20176;-69
2023/06/26 02:59:05;;;;;;;0.80;0.43;;;21.50;26.20;;;;;;5075576;28;20263;-69
2023/06/26 03:01:33;;;;;;;2.47;0.50;;;21.70;27.40;;;;;;5075461;28;20259;-68
2023/06/26 03:04:00;;;;;;;0.83;0.40;;;21.80;27.10;;;;;;5075231;28;20169;-68
2023/06/26 03:06:28;;;;;;;1.37;0.83;;;22.00;26.90;;;;;;5075289;28;20185;-68
2023/06/26 03:09:05;;;;;;;3.63;1.17;;;22.20;28.20;;;;;;5075304;28;20230;-69
2023/06/26 03:11:32;;;;;;;1.57;0.50;;;21.90;27.40;;;;;;5075399;28;20243;-68
2023/06/26 03:14:00;;;;;;;4.40;0.57;;;22.20;28.00;;;;;;5075408;28;20633;-68
2023/06/26 03:16:28;;;;;;;1.13;0.60;;;22.70;27.40;;;;;;5074478;28;20168;-68
2023/06/26 03:18:55;;;;;;;2.87;0.47;;;22.50;27.60;;;;;;5075409;28;20710;-68
2023/06/26 03:21:23;;;;;;;3.37;0.70;;;22.30;27.10;;;;;;5075019;28;20366;-68
2023/06/26 03:23:51;;;;;;;0.93;0.40;;;22.00;27.30;;;;;;5074890;28;20183;-69
2023/06/26 03:26:19;;;;;;;2.50;0.60;;;22.00;27.70;;;;;;5075076;28;20180;-68
2023/06/26 03:28:46;;;;;;;2.63;0.43;;;22.10;27.50;;;;;;5075065;28;20263;-68
2023/06/26 03:31:14;;;;;;;2.60;0.60;;;22.50;28.00;;;;;;5074860;28;20310;-70
2023/06/26 03:33:42;;;;;;;0.70;0.40;;;22.60;27.60;;;;;;5074954;28;20214;-69
2023/06/26 03:36:10;;;;;;;1.27;0.50;;;22.80;26.60;;;;;;5075307;28;20506;-69
2023/06/26 03:38:37;;;;;;;1.53;0.50;;;22.20;25.90;;;;;;5074797;28;20205;-68
2023/06/26 03:41:05;;;;;;;1.10;0.50;;;21.90;26.40;;;;;;5074932;28;20176;-68
2023/06/26 03:43:32;;;;;;;4.10;0.60;;;22.00;26.60;;;;;;5074566;28;20209;-68
2023/06/26 03:45:59;;;;;;;1.70;0.53;;;21.80;26.70;;;;;;5074644;28;20176;-68
2023/06/26 03:48:27;;;;;;;2.83;0.60;;;21.80;26.10;;;;;;5074509;28;20616;-70
2023/06/26 03:50:55;;;;;;;2.00;0.67;;;21.50;25.90;;;;;;5074416;28;20220;-69
2023/06/26 03:53:23;;;;;;;4.47;0.60;;;21.50;26.60;;;;;;5074567;28;20229;-68
2023/06/26 03:55:50;;;;;;;7.30;0.80;;;21.40;26.60;;;;;;5074606;28;20179;-69
2023/06/26 03:58:18;;;;;;;3.30;0.50;;;21.80;26.50;;;;;;5074368;28;20180;-70
2023/06/26 04:00:47;;;;;;;2.50;0.70;;;21.60;26.60;;;;;;5074381;28;20668;-69
2023/06/26 04:03:14;;;;;;;3.20;0.60;;;22.10;26.40;;;;;;5074203;28;20176;-67
2023/06/26 04:05:41;;;;;;;1.27;0.50;;;21.60;25.30;;;;;;5074731;28;20176;-70
2023/06/26 04:08:09;;;;;;;1.90;0.77;;;21.30;26.50;;;;;;5074091;28;20232;-70
2023/06/26 04:10:37;;;;;;;2.93;0.60;;;21.40;27.00;;;;;;5072709;28;20218;-69
2023/06/26 04:13:04;;;;;;;2.73;0.60;;;21.20;25.70;;;;;;5074063;28;20172;-68
2023/06/26 04:15:31;;;;;;;6.63;0.67;;;21.30;26.20;;;;;;5074126;28;20653;-68
2023/06/26 04:17:59;;;;;;;2.57;0.63;;;21.60;26.90;;;;;;5073661;28;20226;-68
2023/06/26 04:20:26;;;;;;;1.97;0.60;;;21.80;26.60;;;;;;5074053;28;20172;-69
2023/06/26 04:22:54;;;;;;;1.07;0.50;;;21.70;26.80;;;;;;5073643;28;20179;-70
2023/06/26 04:25:21;;;;;;;3.20;0.63;;;21.60;25.70;;;;;;5073929;28;20187;-69
2023/06/26 04:27:52;;;;;;;4.63;0.80;;;21.30;25.70;;;;;;5071365;28;21013;-71
2023/06/26 04:30:19;;;;;;;2.37;0.50;;;21.70;26.40;;;;;;5073077;28;20226;-70
2023/06/26 04:32:47;;;;;;;5.23;0.50;;;21.40;25.00;;;;;;5073497;28;20267;-70
2023/06/26 04:35:14;;;;;;;2.40;0.50;;;21.40;26.00;;;;;;5073533;28;20184;-70
2023/06/26 04:37:42;;;;;;;3.70;0.60;;;21.50;26.50;;;;;;5073505;28;20266;-70
2023/06/26 04:40:11;;;;;;;2.00;0.70;;;21.40;25.80;;;;;;5073133;28;20678;-71
2023/06/26 04:42:38;;;;;;;0.90;0.63;;;21.30;25.50;;;;;;5073310;28;20184;-70
2023/06/26 04:45:06;;;;;;;2.80;0.93;;;21.10;26.00;;;;;;5073421;28;20232;-71
2023/06/26 04:47:33;;;;;;;3.30;0.80;;;21.30;26.20;;;;;;5073286;28;20199;-71
2023/06/26 04:50:01;;;;;;;1.87;0.50;;;21.10;25.80;;;;;;5060291;28;20192;-70
2023/06/26 04:52:28;;;;;;;3.07;0.70;;;21.10;25.00;;;;;;5069310;28;20184;-70
2023/06/26 04:54:55;;;;;;;1.60;0.63;;;20.80;25.80;;;;;;5073217;28;20247;-70
2023/06/26 04:57:23;;;;;;;2.80;0.73;;;20.60;26.20;;;;;;5073257;28;20180;-70
2023/06/26 04:59:50;;;;;;;3.73;0.90;;;20.50;26.50;;;;;;5072857;28;20286;-71
2023/06/26 05:02:17;;;;;;;3.07;0.80;;;20.50;25.60;;;;;;5072603;28;20180;-71
2023/06/26 05:04:46;;;;;;;3.47;0.60;;;20.10;25.80;;;;;;5073207;28;20183;-71
2023/06/26 05:07:13;;;;;;;2.83;0.80;;;20.10;26.40;;;;;;5071119;28;20210;-68
2023/06/26 05:09:40;;;;;;;6.83;0.83;;;20.30;27.10;;;;;;5072514;28;20184;-71
2023/06/26 05:12:08;;;;;;;5.73;0.97;;;20.40;26.60;;;;;;5073048;28;20214;-68
2023/06/26 05:14:35;;;;;;;2.07;0.70;;;20.20;26.00;;;;;;5073044;28;20186;-69
2023/06/26 05:17:03;;;;;;;2.60;0.97;;;19.90;26.00;;;;;;5072947;28;20223;-69
2023/06/26 05:19:31;;;;;;;5.13;0.70;;;19.80;27.00;;;;;;5073153;28;20641;-70
2023/06/26 05:22:01;;;;;;;3.30;0.70;;;19.50;27.00;;;;;;5072977;28;20660;-70
2023/06/26 05:24:30;;;;;;;5.63;0.80;;;19.50;27.60;;;;;;5072886;28;20170;-70
2023/06/26 05:26:57;;;;;;;2.57;0.70;;;19.60;27.30;;;;;;5073030;28;20694;-69
2023/06/26 05:29:25;;;;;;;3.87;0.80;;;19.40;28.00;;;;;;5073195;28;20176;-69
2023/06/26 05:31:53;;;;;;;2.00;0.70;;;19.30;27.60;;;;;;5072930;28;20243;-69
2023/06/26 05:34:31;;;;;;;1.67;0.70;;;19.10;28.10;;;;;;5072759;28;20181;-68
2023/06/26 05:37:00;;;;;;;4.83;0.93;;;18.80;28.80;;;;;;5073213;28;20180;-69
2023/06/26 05:39:27;;;;;;;3.10;0.80;;;18.50;29.20;;;;;;5075375;28;20176;-68
2023/06/26 05:41:55;;;;;;;2.33;0.87;;;18.40;30.40;;;;;;5076982;28;20164;-68
2023/06/26 05:44:22;;;;;;;5.17;1.10;;;18.20;29.80;;;;;;5077067;28;20199;-69
2023/06/26 05:46:50;;;;;;;4.43;1.20;;;18.10;30.60;;;;;;5076899;28;20183;-69
2023/06/26 05:49:17;;;;;;;2.43;1.20;;;17.90;29.90;;;;;;5076839;28;20180;-67
2023/06/26 05:51:44;;;;;;;2.00;0.90;;;17.80;30.60;;;;;;5076603;28;20237;-68
2023/06/26 05:54:13;;;;;;;2.93;0.90;;;17.70;30.60;;;;;;5076726;28;20206;-69
2023/06/26 05:56:41;;;;;;;5.30;0.80;;;17.60;30.80;;;;;;5076738;28;20541;-68
2023/06/26 05:59:09;;;;;;;2.23;1.07;;;17.50;31.20;;;;;;5076882;28;20176;-68
2023/06/26 06:01:36;;;;;;;2.60;0.70;;;17.50;32.50;;;;;;5076304;28;20183;-67
2023/06/26 06:04:04;;;;;;;2.33;0.80;;;17.40;32.30;;;;;;5076472;28;20207;-69
2023/06/26 06:06:31;;;;;;;2.53;0.70;;;17.40;32.60;;;;;;5076334;28;20172;-67
2023/06/26 06:08:58;;;;;;;7.77;1.30;;;17.30;32.70;;;;;;5076534;28;20568;-69
2023/06/26 06:11:26;;;;;;;1.90;0.80;;;17.30;32.80;;;;;;5076014;28;20683;-68
2023/06/26 06:13:53;;;;;;;2.30;0.70;;;17.20;33.60;;;;;;5075123;28;20169;-70
2023/06/26 06:16:20;;;;;;;5.10;0.90;;;17.10;33.80;;;;;;5075752;28;20180;-69
2023/06/26 06:18:47;;;;;;;1.67;0.80;;;17.10;33.00;;;;;;5076178;28;20551;-68
2023/06/26 06:21:15;;;;;;;3.50;1.33;;;17.10;33.40;;;;;;5075582;28;20270;-68
2023/06/26 06:23:42;;;;;;;3.07;0.70;;;17.00;33.70;;;;;;5076131;28;20183;-70
2023/06/26 06:26:10;;;;;;;2.80;0.80;;;17.00;33.40;;;;;;5075487;28;20185;-69
2023/06/26 06:28:37;;;;;;;1.83;1.00;;;16.90;33.90;;;;;;5075829;28;20238;-69
2023/06/26 06:31:05;;;;;;;2.67;0.80;;;16.90;33.20;;;;;;5075712;28;20240;-69
2023/06/26 06:33:32;;;;;;;1.77;0.73;;;16.90;33.20;;;;;;5075884;28;20180;-69
2023/06/26 06:35:59;;;;;;;2.50;0.80;;;16.80;33.40;;;;;;5075650;28;20645;-70
2023/06/26 06:38:27;;;;;;;2.57;0.80;;;16.70;33.40;;;;;;5075828;28;20229;-69
2023/06/26 06:40:54;;;;;;;2.00;0.93;;;16.70;33.40;;;;;;5075279;28;20237;-69
2023/06/26 06:43:21;;;;;;;5.60;1.00;;;16.60;33.60;;;;;;5075114;28;20184;-70
2023/06/26 06:45:49;;;;;;;3.70;0.83;;;16.40;34.00;;;;;;5074849;28;20187;-69
2023/06/26 06:48:16;;;;;;;3.90;0.80;;;16.30;34.00;;;;;;5075397;28;20176;-69
2023/06/26 06:50:43;;;;;;;2.73;0.90;;;16.30;34.70;;;;;;5074481;28;20610;-69
2023/06/26 06:53:11;;;;;;;2.67;0.93;;;16.20;34.90;;;;;;5062605;28;20230;-69
2023/06/26 06:55:38;;;;;;;3.07;0.63;;;16.10;36.10;;;;;;5072871;28;20211;-69
2023/06/26 06:58:05;;;;;;;4.20;0.93;;;16.00;35.40;;;;;;5075131;28;20179;-69
2023/06/26 07:00:33;;;;;;;2.60;0.80;;;16.00;36.00;;;;;;5075376;28;20179;-70
2023/06/26 07:03:00;;;;;;;2.63;1.33;;;16.00;36.10;;;;;;5075005;28;20228;-69
2023/06/26 07:05:28;;;;;;;1.63;0.70;;;16.00;35.60;;;;;;5075039;28;20234;-71
2023/06/26 07:07:55;;;;;;;3.07;1.13;;;15.90;36.20;;;;;;5075093;28;20676;-69
2023/06/26 07:10:23;;;;;;;1.80;0.90;;;15.80;36.90;;;;;;5074821;28;20203;-69
2023/06/26 07:12:50;;;;;;;5.00;1.30;;;15.70;37.20;;;;;;5074976;28;20224;-70
2023/06/26 07:15:17;;;;;;;7.23;1.30;;;15.60;37.80;;;;;;5075001;28;20171;-69
2023/06/26 07:17:45;;;;;;;1.93;0.90;;;15.60;37.40;;;;;;5074808;28;20228;-69
2023/06/26 07:20:15;;;;;;;2.73;1.00;;;15.60;38.00;;;;;;5075169;28;20305;-69
2023/06/26 07:22:44;;;;;;;1.17;0.80;;;15.50;38.40;;;;;;5074689;28;20221;-69
2023/06/26 07:25:12;;;;;;;2.90;1.73;;;15.50;37.70;;;;;;5074995;28;20179;-69
2023/06/26 07:27:40;;;;;;;7.73;1.20;;;15.60;38.00;;;;;;5074988;28;20644;-70
2023/06/26 07:30:11;;;;;;;2.57;0.93;;;15.60;38.70;;;;;;5074747;28;20184;-71
2023/06/26 07:32:40;;;;;;;3.77;1.03;;;15.50;39.50;;;;;;5075034;28;20536;-69
2023/06/26 07:35:08;;;;;;;5.73;1.23;;;15.40;39.70;;;;;;5074801;28;20176;-69
2023/06/26 07:37:35;;;;;;;4.37;1.70;;;15.30;40.70;;;;;;5074969;28;20179;-69
2023/06/26 07:40:03;;;;;;;2.23;1.60;;;15.30;40.50;;;;;;5075228;28;20265;-69
2023/06/26 07:42:31;;;;;;;1.27;1.00;;;15.20;41.00;;;;;;5074505;28;20175;-69
2023/06/26 07:44:58;;;;;;;3.90;1.10;;;15.30;41.10;;;;;;5074832;28;20184;-69
2023/06/26 07:47:25;;;;;;;5.60;1.23;;;15.20;41.30;;;;;;5074529;28;20266;-69
2023/06/26 07:49:53;;;;;;;2.77;1.17;;;15.20;41.80;;;;;;5074705;28;20179;-68
2023/06/26 07:52:20;;;;;;;2.27;1.00;;;15.20;41.70;;;;;;5074910;28;20202;-69
2023/06/26 07:54:48;;;;;;;3.30;1.00;;;15.20;42.10;;;;;;5074608;28;20182;-69
2023/06/26 07:57:15;;;;;;;3.63;0.70;;;15.20;42.20;;;;;;5074543;28;20175;-69
2023/06/26 07:59:42;;;;;;;2.63;1.00;;;15.30;41.50;;;;;;5074497;28;20217;-69
2023/06/26 08:02:10;;;;;;;5.00;1.20;;;15.40;42.00;;;;;;5074267;28;20274;-69
2023/06/26 08:04:37;;;;;;;2.97;1.00;;;15.30;42.20;;;;;;5074213;28;20194;-68
2023/06/26 08:07:05;;;;;;;4.23;1.40;;;15.30;42.10;;;;;;5074288;28;20583;-69
2023/06/26 08:09:33;;;;;;;1.23;0.80;;;15.20;43.00;;;;;;5074341;28;20175;-69
2023/06/26 08:12:01;;;;;;;1.83;0.90;;;15.20;42.60;;;;;;5074124;28;20221;-69
2023/06/26 08:14:28;;;;;;;4.00;1.17;;;15.20;43.20;;;;;;5072660;28;20171;-71
2023/06/26 08:16:56;;;;;;;4.63;1.07;;;15.20;43.50;;;;;;5059348;28;20265;-71
2023/06/26 08:19:23;;;;;;;3.57;0.90;;;15.10;43.80;;;;;;5072309;28;20175;-71
2023/06/26 08:21:50;;;;;;;5.13;0.90;;;15.10;44.30;;;;;;5072328;28;20184;-70
2023/06/26 08:24:18;;;;;;;2.70;0.97;;;15.10;44.70;;;;;;5072847;28;20249;-70
2023/06/26 08:26:47;;;;;;;5.07;0.90;;;15.00;45.30;;;;;;5072038;28;20221;-70
2023/06/26 08:29:14;;;;;;;2.33;0.87;;;14.90;45.70;;;;;;5072106;28;20569;-71
2023/06/26 08:31:43;;;;;;;1.90;0.80;;;14.90;45.80;;;;;;5072118;28;20677;-70
2023/06/26 08:34:10;;;;;;;1.90;0.97;;;14.80;46.30;;;;;;5072214;28;20187;-70
2023/06/26 08:36:38;;;;;;;6.13;0.90;;;14.80;46.40;;;;;;5072129;28;20221;-70
2023/06/26 08:39:05;;;;;;;2.30;0.90;;;14.80;47.30;;;;;;5070434;28;20182;-71
2023/06/26 08:41:33;;;;;;;1.80;0.93;;;14.70;47.10;;;;;;5071962;28;20225;-71
2023/06/26 08:44:00;;;;;;;2.10;0.90;;;14.70;48.40;;;;;;5071787;28;20577;-70
2023/06/26 08:46:29;;;;;;;1.00;1.00;;;14.60;49.20;;;;;;5072015;28;20638;-70
2023/06/26 08:49:00;;;;;;;6.23;0.93;;;14.80;49.10;;;;;;5070495;28;20210;-70
2023/06/26 08:51:30;;;;;;;2.70;1.27;;;14.70;49.80;;;;;;5071737;28;20292;-70
2023/06/26 08:54:00;;;;;;;2.37;0.90;;;14.60;50.70;;;;;;5071707;28;20657;-70
2023/06/26 08:56:37;;;;;;;4.60;0.90;;;14.50;51.60;;;;;;5071712;28;20180;-70
2023/06/26 08:59:05;;;;;;;7.00;1.20;;;14.60;51.20;;;;;;5071710;28;20195;-70
2023/06/26 09:01:33;;;;;;;4.70;1.40;;;14.80;51.10;;;;;;5071496;28;20525;-70
2023/06/26 09:04:00;;;;;;;4.00;1.37;;;14.80;51.50;;;;;;5072566;28;20176;-70
2023/06/26 09:06:28;;;;;;;2.27;1.10;;;14.60;52.40;;;;;;5072968;28;20218;-70
2023/06/26 09:08:56;;;;;;;2.33;1.23;;;14.60;52.80;;;;;;5072783;28;20672;-69
2023/06/26 09:11:23;;;;;;;2.70;1.00;;;14.60;53.40;;;;;;5071589;28;20783;-70
2023/06/26 09:13:52;;;;;;;5.70;1.00;;;14.70;54.20;;;;;;5054095;28;20229;-71
2023/06/26 09:16:24;;;;;;;4.73;1.20;;;14.70;55.50;;;;;;5071532;28;20183;-71
2023/06/26 09:18:53;;;;;;;2.27;1.00;;;14.60;56.40;;;;;;5071277;28;20184;-70
2023/06/26 09:21:22;;;;;;;3.43;1.73;;;14.50;57.30;;;;;;5071026;28;20190;-70
2023/06/26 09:23:50;;;;;;;2.20;1.20;;;14.40;58.60;;;;;;5071076;28;20218;-72
2023/06/26 09:26:18;;;;;;;3.60;1.13;;;14.30;59.80;;;;;;5071506;28;20182;-72
2023/06/26 09:28:45;;;;;;;2.83;0.83;;;14.20;62.80;;;;;;5071365;28;20168;-69
2023/06/26 09:31:13;;;;;;;2.60;1.10;;;14.30;62.90;;;;;;5070952;28;20214;-71
2023/06/26 09:33:42;;;;;;;5.90;0.90;;;14.20;64.50;;;;;;5071173;28;20266;-70
2023/06/26 09:36:19;;;;;;;1.30;0.90;;;14.30;66.70;;;;;;5071151;28;20206;-70
2023/06/26 09:38:46;;;;;;;4.07;1.00;;;14.10;68.30;;;;;;5071295;28;20617;-70
2023/06/26 09:41:17;;;;;;;2.53;0.97;;;14.00;70.80;;;;;;5071085;28;20226;-69
2023/06/26 09:43:51;;;;;;;3.17;0.80;;;14.00;74.30;;;;;;5071388;28;20658;-70
2023/06/26 09:46:29;;;;;;;5.97;3.23;;;14.00;76.50;;;;;;5071483;28;20200;-70
2023/06/26 09:49:10;;;;;;;3.10;1.33;;;14.00;77.30;;;;;;5069264;28;20623;-70
2023/06/26 09:51:39;;;;;;;0.83;0.73;;;14.00;78.40;;;;;;5070982;28;20750;-69
2023/06/26 09:54:07;;;;;;;2.07;1.27;;;14.10;79.10;;;;;;5071061;28;20648;-69
2023/06/26 09:56:35;;;;;;;1.47;1.00;;;14.00;83.00;;;;;;5071100;28;20236;-69
2023/06/26 09:59:04;;;;;;;4.20;0.80;;;14.20;83.50;;;;;;5071138;28;20263;-69
2023/06/26 10:01:33;;;;;;;3.07;0.90;;;14.20;83.80;;;;;;5070039;28;20175;-69
2023/06/26 10:04:01;;;;;;;3.03;1.00;;;14.20;85.40;;;;;;5069134;28;20538;-69
2023/06/26 10:06:36;;;;;;;0.90;0.90;;;14.10;88.00;;;;;;5071693;28;20182;-69
2023/06/26 10:09:05;;;;;;;3.70;1.00;;;14.00;89.50;;;;;;5072201;28;20281;-69
2023/06/26 10:11:55;;;;;;;4.23;0.90;;;13.80;91.60;;;;;;5071691;28;20219;-70
2023/06/26 10:14:26;;;;;;;2.10;0.80;;;14.00;92.80;;;;;;5072520;28;20259;-72
2023/06/26 10:17:01;;;;;;;2.33;1.00;;;13.90;93.30;;;;;;5071804;28;20226;-69
2023/06/26 10:19:30;;;;;;;2.87;0.97;;;13.80;96.10;;;;;;5072128;28;20174;-71
2023/06/26 10:21:59;;;;;;;6.77;1.00;;;13.60;98.20;;;;;;5071628;28;20219;-70
2023/06/26 10:24:29;;;;;;;5.30;0.90;;;13.50;99.90;;;;;;5071714;28;20214;-69
2023/06/26 10:27:05;;;;;;;4.33;1.00;;;13.60;99.90;;;;;;5075094;28;20186;-70
2023/06/26 10:29:34;;;;;;;3.13;1.20;;;13.50;99.90;;;;;;5075767;28;20187;-71
2023/06/26 10:32:05;;;;;;;2.70;0.90;;;13.50;99.90;;;;;;5075431;28;20257;-70
2023/06/26 10:34:32;;;;;;;2.57;1.07;;;13.30;99.90;;;;;;5075311;28;20619;-68
2023/06/26 10:37:02;;;;;;;2.47;1.30;;;13.10;99.90;;;;;;5075529;28;20222;-69
2023/06/26 10:39:50;;;;;;;3.47;1.23;;;13.00;99.90;;;;;;5075348;28;20664;-70
2023/06/26 10:42:21;;;;;;;6.43;4.50;;;12.90;99.90;;;;;;5074951;28;20202;-69
2023/06/26 10:44:49;;;;;;;5.00;2.60;;;13.00;99.90;;;;;;5074115;28;20179;-69
2023/06/26 10:47:32;;;;;;;5.90;2.17;;;13.10;99.90;;;;;;5075262;28;20180;-70
2023/06/26 10:50:24;;;;;;;2.70;1.50;;;13.10;99.90;;;;;;5074696;28;20234;-71
2023/06/26 10:53:15;;;;;;;3.20;1.40;;;13.30;99.90;;;;;;5075386;28;20602;-71
2023/06/26 10:56:01;;;;;;;3.07;1.47;;;13.30;99.90;;;;;;5053749;28;20193;-71
2023/06/26 10:58:46;;;;;;;3.43;1.20;;;13.20;99.90;;;;;;5055340;28;20177;-71
2023/06/26 11:01:23;;;;;;;3.53;1.33;;;13.30;99.90;;;;;;5054703;28;20185;-71
2023/06/26 11:04:02;;;;;;;1.20;0.83;;;13.40;99.90;;;;;;5055027;28;20180;-71
2023/06/26 11:06:29;;;;;;;3.90;1.20;;;13.40;99.90;;;;;;5054559;28;20729;-71
2023/06/26 11:09:18;;;;;;;2.70;1.53;;;13.40;99.90;;;;;;5054791;28;20187;-71
2023/06/26 11:11:59;;;;;;;3.57;1.70;;;13.60;99.90;;;;;;5054717;28;20218;-71
2023/06/26 11:14:27;;;;;;;3.67;1.20;;;13.70;99.90;;;;;;5055024;28;20226;-70
2023/06/26 11:16:57;;;;;;;1.07;0.80;;;13.50;99.90;;;;;;5054560;28;20228;-72
2023/06/26 11:19:31;;;;;;;2.67;1.00;;;13.30;99.90;;;;;;5054863;28;20168;-69
2023/06/26 11:22:05;;;;;;;2.77;1.17;;;13.10;99.90;;;;;;5054845;28;20187;-70
2023/06/26 11:24:33;;;;;;;2.97;1.30;;;12.90;99.90;;;;;;5054610;28;20184;-70
2023/06/26 11:27:05;;;;;;;2.43;0.93;;;12.70;99.90;;;;;;5054687;28;20672;-69
2023/06/26 11:29:33;;;;;;;1.73;1.00;;;12.60;99.90;;;;;;5054622;28;20259;-70
2023/06/26 11:32:02;;;;;;;1.97;1.03;;;12.50;99.90;;;;;;5054559;28;20214;-70
2023/06/26 11:34:35;;;;;;;5.57;1.10;;;12.50;99.90;;;;;;5054218;28;20654;-70
2023/06/26 11:37:03;;;;;;;2.23;0.87;;;12.30;99.90;;;;;;5054068;28;20181;-70
2023/06/26 11:39:31;;;;;;;2.73;1.00;;;12.20;99.90;;;;;;5054506;28;20267;-69
2023/06/26 11:41:59;;;;;;;4.03;1.40;;;12.10;99.90;;;;;;5054453;28;20180;-70
2023/06/26 11:44:31;;;;;;;3.33;1.10;;;12.10;99.90;;;;;;5042181;28;20180;-70
2023/06/26 11:46:59;;;;;;;2.83;1.03;;;12.10;99.90;;;;;;5072628;28;20270;-70
2023/06/26 11:49:28;;;;;;;3.87;1.37;;;11.90;99.90;;;;;;5072201;28;20201;-70
2023/06/26 11:51:56;;;;;;;4.13;1.33;;;12.00;99.90;;;;;;5072278;28;20221;-69
2023/06/26 11:54:27;;;;;;;5.43;1.50;;;11.80;99.90;;;;;;5071318;28;20178;-70
2023/06/26 11:56:59;;;;;;;3.07;1.57;;;11.70;99.90;;;;;;5072183;28;20186;-69
2023/06/26 11:59:34;;;;;;;4.43;1.60;;;11.70;99.90;;;;;;5072425;28;20176;-70
2023/06/26 12:02:10;;;;;;;4.97;1.10;;;12.30;99.90;;;;;;5071062;28;20188;-70
2023/06/26 12:04:41;;;;;;;1.60;1.03;;;12.60;99.90;;;;;;5072521;28;20174;-69
2023/06/26 12:07:09;;;;;;;2.27;0.90;;;12.70;99.90;;;;;;5072076;28;20183;-70
2023/06/26 12:09:45;;;;;;;2.27;0.90;;;12.70;99.90;;;;;;5072299;28;20172;-69
2023/06/26 12:12:14;;;;;;;2.67;1.37;;;12.80;99.90;;;;;;5071926;28;20589;-69
2023/06/26 12:14:42;;;;;;;3.17;1.10;;;12.80;99.90;;;;;;5072109;28;20281;-70
2023/06/26 12:17:14;;;;;;;2.70;1.23;;;12.90;99.90;;;;;;5072986;28;20623;-68
2023/06/26 12:19:47;;;;;;;3.50;1.23;;;12.90;99.90;;;;;;5073211;28;20197;-69
2023/06/26 12:22:15;;;;;;;4.13;1.20;;;12.80;99.90;;;;;;5073417;28;20176;-69
2023/06/26 12:24:44;;;;;;;3.40;1.20;;;12.80;99.90;;;;;;5073129;28;20209;-68
2023/06/26 12:27:14;;;;;;;4.37;1.00;;;12.80;99.90;;;;;;5073540;28;20179;-69
2023/06/26 12:29:53;;;;;;;1.53;0.80;;;12.70;99.90;;;;;;5073220;28;20644;-69
2023/06/26 12:32:23;;;;;;;2.73;1.00;;;12.70;99.90;;;;;;5073577;28;20619;-68
2023/06/26 12:34:50;;;;;;;2.97;1.00;;;12.60;99.90;;;;;;5073458;28;20171;-69
2023/06/26 12:37:18;;;;;;;2.10;0.90;;;12.50;99.90;;;;;;5073135;28;20663;-69
2023/06/26 12:39:53;;;;;;;3.40;1.00;;;12.30;99.90;;;;;;5073284;28;20263;-69
2023/06/26 12:42:25;;;;;;;5.03;1.50;;;12.30;99.90;;;;;;5073304;28;20181;-70
2023/06/26 12:44:57;;;;;;;3.10;1.20;;;12.50;99.90;;;;;;5073168;28;20664;-69
2023/06/26 12:47:31;;;;;;;1.97;1.10;;;12.60;99.90;;;;;;5073063;28;20179;-69
2023/06/26 12:49:58;;;;;;;4.40;1.43;;;12.40;99.90;;;;;;5072600;28;20210;-69
2023/06/26 12:52:26;;;;;;;1.93;0.80;;;12.30;99.90;;;;;;5072747;28;20218;-69
2023/06/26 12:54:55;;;;;;;2.37;1.10;;;12.30;99.90;;;;;;5073213;28;20179;-70
2023/06/26 12:57:23;;;;;;;2.33;1.10;;;12.10;99.90;;;;;;5071687;28;20667;-69
2023/06/26 12:59:51;;;;;;;2.17;0.90;;;11.90;99.90;;;;;;5073043;28;20223;-68
2023/06/26 13:02:18;;;;;;;2.90;1.10;;;11.80;99.90;;;;;;5072522;28;20638;-70
2023/06/26 13:04:46;;;;;;;4.73;1.07;;;11.70;99.90;;;;;;5073021;28;20183;-69
2023/06/26 13:07:13;;;;;;;2.07;1.17;;;11.80;99.90;;;;;;5072740;28;20175;-68